createdAt,value
2022-11-05T00:00:08.144Z,10.50
2022-11-05T00:02:53.311Z,10.50
2022-11-05T00:05:38.925Z,10.50
2022-11-05T00:08:24.610Z,10.50
2022-11-05T00:10:50.800Z,10.50
2022-11-05T00:13:36.100Z,10.50
2022-11-05T00:16:20.418Z,10.40
2022-11-05T00:19:05.671Z,10.40
2022-11-05T00:21:51.117Z,10.40
2022-11-05T00:24:35.962Z,10.30
2022-11-05T00:27:02.514Z,10.30
2022-11-05T00:29:29.866Z,10.20
2022-11-05T00:31:56.041Z,10.20
2022-11-05T00:34:22.926Z,10.20
2022-11-05T00:36:50.400Z,10.10
2022-11-05T00:39:16.564Z,10.20
2022-11-05T00:41:45.031Z,10.10
2022-11-05T00:44:29.752Z,10.10
2022-11-05T00:49:29.553Z,10.10
2022-11-05T00:52:55.215Z,10.00
2022-11-05T00:56:21.819Z,10.00
2022-11-05T00:58:48.884Z,9.90
2022-11-05T01:01:17.421Z,10.00
2022-11-05T01:03:48.793Z,9.90
2022-11-05T01:06:17.581Z,10.00
2022-11-05T01:08:44.960Z,9.90
2022-11-05T01:11:32.177Z,9.90
2022-11-05T01:14:08.557Z,9.90
2022-11-05T01:16:35.805Z,9.90
2022-11-05T01:19:02.680Z,9.90
2022-11-05T01:21:30.209Z,9.90
2022-11-05T01:23:56.455Z,9.90
2022-11-05T01:26:22.774Z,9.90
2022-11-05T01:28:56.191Z,9.90
2022-11-05T01:31:22.810Z,9.90
2022-11-05T01:33:49.038Z,9.90
2022-11-05T01:36:20.266Z,9.90
2022-11-05T01:38:49.658Z,9.90
2022-11-05T01:41:16.238Z,9.90
2022-11-05T01:43:56.348Z,9.90
2022-11-05T01:46:44.703Z,9.90
2022-11-05T01:49:29.391Z,9.90
2022-11-05T01:51:56.575Z,9.80
2022-11-05T01:54:25.964Z,9.70
2022-11-05T01:56:55.608Z,9.60
2022-11-05T01:59:28.046Z,9.60
2022-11-05T02:01:54.762Z,9.50
2022-11-05T02:04:33.455Z,9.50
2022-11-05T02:06:59.683Z,9.50
2022-11-05T02:09:54.007Z,9.50
2022-11-05T02:12:20.290Z,9.50
2022-11-05T02:14:46.830Z,9.50
2022-11-05T02:22:03.658Z,9.40
2022-11-05T02:24:55.803Z,9.40
2022-11-05T02:27:51.873Z,9.40
2022-11-05T02:30:46.676Z,9.40
2022-11-05T02:35:02.590Z,9.30
2022-11-05T02:39:41.710Z,9.30
2022-11-05T02:46:37.506Z,8.20
2022-11-05T02:49:17.891Z,9.30
2022-11-05T02:51:57.327Z,9.20
2022-11-05T02:57:03.072Z,9.20
2022-11-05T02:59:31.040Z,9.20
2022-11-05T03:01:59.978Z,9.20
2022-11-05T03:04:26.255Z,9.20
2022-11-05T03:07:18.674Z,9.20
2022-11-05T03:10:15.257Z,9.20
2022-11-05T03:13:31.347Z,9.20
2022-11-05T03:16:05.464Z,9.20
2022-11-05T03:18:42.994Z,9.20
2022-11-05T03:21:22.725Z,9.20
2022-11-05T03:24:16.872Z,9.20
2022-11-05T03:26:54.953Z,9.20
2022-11-05T03:29:24.500Z,9.20
2022-11-05T03:31:51.584Z,9.20
2022-11-05T03:34:19.010Z,9.20
2022-11-05T03:36:47.809Z,9.20
2022-11-05T03:39:20.232Z,9.10
2022-11-05T03:41:49.437Z,9.10
2022-11-05T03:44:16.557Z,9.10
2022-11-05T03:46:48.178Z,9.10
2022-11-05T03:49:26.383Z,9.10
2022-11-05T03:52:01.711Z,9.10
2022-11-05T03:54:28.214Z,9.10
2022-11-05T03:57:24.745Z,9.10
2022-11-05T03:59:50.944Z,9.10
2022-11-05T04:02:22.187Z,9.10
2022-11-05T04:04:49.695Z,9.10
2022-11-05T04:07:34.866Z,9.00
2022-11-05T04:10:20.125Z,9.00
2022-11-05T04:13:05.190Z,9.00
2022-11-05T04:17:05.863Z,9.00
2022-11-05T04:19:51.930Z,9.00
2022-11-05T04:23:48.582Z,9.00
2022-11-05T04:26:14.719Z,9.00
2022-11-05T04:29:03.707Z,9.00
2022-11-05T04:31:33.571Z,9.00
2022-11-05T04:34:00.763Z,9.00
2022-11-05T04:36:26.995Z,9.00
2022-11-05T04:38:53.279Z,9.00
2022-11-05T04:41:19.724Z,9.00
2022-11-05T04:43:46.028Z,9.00
2022-11-05T04:46:12.182Z,9.00
2022-11-05T04:48:38.727Z,9.00
2022-11-05T04:51:05.437Z,9.00
2022-11-05T04:53:31.589Z,8.90
2022-11-05T04:56:23.239Z,9.00
2022-11-05T04:58:50.826Z,8.90
2022-11-05T05:01:22.431Z,9.00
2022-11-05T05:03:52.183Z,8.90
2022-11-05T05:06:20.801Z,8.90
2022-11-05T05:08:47.801Z,8.90
2022-11-05T05:11:16.718Z,8.90
2022-11-05T05:13:43.423Z,8.90
2022-11-05T05:16:19.925Z,8.90
2022-11-05T05:18:46.739Z,8.90
2022-11-05T05:21:32.057Z,8.90
2022-11-05T05:23:58.704Z,8.90
2022-11-05T05:26:24.846Z,8.90
2022-11-05T05:28:53.892Z,8.90
2022-11-05T05:31:21.000Z,8.90
2022-11-05T05:33:47.253Z,8.80
2022-11-05T05:36:14.542Z,8.90
2022-11-05T05:38:41.171Z,8.90
2022-11-05T05:41:07.841Z,8.90
2022-11-05T05:43:34.039Z,8.90
2022-11-05T05:46:04.327Z,8.90
2022-11-05T05:48:30.525Z,8.90
2022-11-05T05:51:04.055Z,8.90
2022-11-05T05:53:31.551Z,8.90
2022-11-05T05:55:58.075Z,8.90
2022-11-05T05:58:26.656Z,8.90
2022-11-05T06:00:53.491Z,8.90
2022-11-05T06:03:19.833Z,8.90
2022-11-05T06:05:46.465Z,8.90
2022-11-05T06:08:12.632Z,8.90
2022-11-05T06:10:39.302Z,8.90
2022-11-05T06:13:05.791Z,9.00
2022-11-05T06:15:35.813Z,9.00
2022-11-05T06:18:02.811Z,9.00
2022-11-05T06:20:29.387Z,9.00
2022-11-05T06:22:56.551Z,9.00
2022-11-05T06:25:23.452Z,9.00
2022-11-05T06:27:49.684Z,9.00
2022-11-05T06:30:17.175Z,9.00
2022-11-05T06:32:43.929Z,9.00
2022-11-05T06:35:10.616Z,9.00
2022-11-05T06:37:37.044Z,9.10
2022-11-05T06:40:04.501Z,9.10
2022-11-05T06:42:30.950Z,9.10
2022-11-05T06:44:59.315Z,9.10
2022-11-05T06:47:25.648Z,9.10
2022-11-05T06:49:51.892Z,9.10
2022-11-05T06:52:18.098Z,9.10
2022-11-05T06:54:45.556Z,9.20
2022-11-05T06:57:11.983Z,9.20
2022-11-05T06:59:39.037Z,9.20
2022-11-05T07:02:06.887Z,9.20
2022-11-05T07:04:33.875Z,9.30
2022-11-05T07:07:03.043Z,9.30
2022-11-05T07:09:29.891Z,9.30
2022-11-05T07:11:56.137Z,9.20
2022-11-05T07:14:22.829Z,9.30
2022-11-05T07:16:49.175Z,9.30
2022-11-05T07:19:15.323Z,9.30
2022-11-05T07:21:41.836Z,9.30
2022-11-05T07:24:08.283Z,9.30
2022-11-05T07:26:34.908Z,9.40
2022-11-05T07:29:01.452Z,9.40
2022-11-05T07:31:28.676Z,9.40
2022-11-05T07:33:54.938Z,9.40
2022-11-05T07:36:21.109Z,9.40
2022-11-05T07:38:47.689Z,9.40
2022-11-05T07:41:14.687Z,9.50
2022-11-05T07:43:40.955Z,9.40
2022-11-05T07:46:11.237Z,9.50
2022-11-05T07:48:40.503Z,9.50
2022-11-05T07:51:06.816Z,9.50
2022-11-05T07:53:34.014Z,9.60
2022-11-05T07:56:00.491Z,9.70
2022-11-05T07:58:26.919Z,9.70
2022-11-05T08:00:54.351Z,9.80
2022-11-05T08:03:21.951Z,9.80
2022-11-05T08:05:48.960Z,9.90
2022-11-05T08:08:18.003Z,9.90
2022-11-05T08:10:44.205Z,10.00
2022-11-05T08:13:11.325Z,10.00
2022-11-05T08:15:38.433Z,10.10
2022-11-05T08:18:06.979Z,10.20
2022-11-05T08:20:33.867Z,10.20
2022-11-05T08:23:00.454Z,10.30
2022-11-05T08:25:28.479Z,10.40
2022-11-05T08:27:58.941Z,10.50
2022-11-05T08:30:25.923Z,10.50
2022-11-05T08:32:56.985Z,10.50
2022-11-05T08:35:27.459Z,10.50
2022-11-05T08:38:04.426Z,10.50
2022-11-05T08:40:32.012Z,10.60
2022-11-05T08:42:59.172Z,10.60
2022-11-05T08:45:26.412Z,10.70
2022-11-05T08:48:09.834Z,10.60
2022-11-05T08:50:36.779Z,10.70
2022-11-05T08:53:04.376Z,10.60
2022-11-05T08:55:31.604Z,10.70
2022-11-05T08:58:00.482Z,10.70
2022-11-05T09:00:28.554Z,10.60
2022-11-05T09:02:54.803Z,10.70
2022-11-05T09:05:21.428Z,10.80
2022-11-05T09:07:47.660Z,10.80
2022-11-05T09:10:16.401Z,11.00
2022-11-05T09:12:43.548Z,11.30
2022-11-05T09:15:10.169Z,11.10
2022-11-05T09:17:39.036Z,11.00
2022-11-05T09:20:07.388Z,10.90
2022-11-05T09:22:35.983Z,11.00
2022-11-05T09:25:07.349Z,11.10
2022-11-05T09:27:34.199Z,11.20
2022-11-05T09:30:01.096Z,11.20
2022-11-05T09:32:27.661Z,11.20
2022-11-05T09:34:54.583Z,11.20
2022-11-05T09:37:21.368Z,11.20
2022-11-05T09:39:47.630Z,11.20
2022-11-05T09:42:15.879Z,11.40
2022-11-05T09:44:59.608Z,11.40
2022-11-05T09:47:37.051Z,11.50
2022-11-05T09:50:08.486Z,11.40
2022-11-05T09:52:35.036Z,11.30
2022-11-05T09:55:04.131Z,11.30
2022-11-05T09:57:43.670Z,11.30
2022-11-05T10:00:16.238Z,12.40
2022-11-05T10:02:55.031Z,11.40
2022-11-05T10:05:22.792Z,11.50
2022-11-05T10:08:02.200Z,11.50
2022-11-05T10:10:41.065Z,11.40
2022-11-05T10:13:56.399Z,11.40
2022-11-05T10:16:31.399Z,11.50
2022-11-05T10:19:23.749Z,11.60
2022-11-05T10:22:07.272Z,11.60
2022-11-05T10:24:34.045Z,11.70
2022-11-05T10:27:02.890Z,11.80
2022-11-05T10:29:31.816Z,11.70
2022-11-05T10:31:59.255Z,11.80
2022-11-05T10:34:28.969Z,11.60
2022-11-05T10:36:56.615Z,11.70
2022-11-05T10:39:23.970Z,11.70
2022-11-05T10:51:50.465Z,11.80
2022-11-05T10:54:25.529Z,11.90
2022-11-05T10:56:53.065Z,11.80
2022-11-05T10:59:28.105Z,11.80
2022-11-05T11:02:16.950Z,11.70
2022-11-05T11:04:43.844Z,11.90
2022-11-05T11:07:29.381Z,12.00
2022-11-05T11:09:56.017Z,12.00
2022-11-05T11:12:27.319Z,11.90
2022-11-05T11:15:14.151Z,12.20
2022-11-05T11:17:40.415Z,12.10
2022-11-05T11:20:29.877Z,12.00
2022-11-05T11:23:18.012Z,12.20
2022-11-05T11:26:03.384Z,12.10
2022-11-05T11:28:37.913Z,12.20
2022-11-05T11:31:15.722Z,12.10
2022-11-05T11:33:46.390Z,12.20
2022-11-05T11:36:12.772Z,12.40
2022-11-05T11:38:39.463Z,12.50
2022-11-05T11:41:30.383Z,12.40
2022-11-05T11:44:03.574Z,12.20
2022-11-05T11:46:33.186Z,12.10
2022-11-05T11:48:59.935Z,12.10
2022-11-05T11:51:37.544Z,11.90
2022-11-05T11:54:04.135Z,11.90
2022-11-05T11:56:32.569Z,11.80
2022-11-05T11:59:12.684Z,11.90
2022-11-05T12:03:11.870Z,11.90
2022-11-05T12:09:02.025Z,12.00
2022-11-05T12:11:41.586Z,11.80
2022-11-05T12:18:51.759Z,11.80
2022-11-05T12:25:02.960Z,11.90
2022-11-05T12:30:17.191Z,12.40
2022-11-05T12:33:14.620Z,12.20
2022-11-05T12:35:56.460Z,12.30
2022-11-05T12:46:46.405Z,12.30
2022-11-05T12:50:45.630Z,12.20
2022-11-05T12:53:27.608Z,12.20
2022-11-05T12:55:53.828Z,12.40
2022-11-05T12:58:28.503Z,12.40
2022-11-05T13:01:19.632Z,12.50
2022-11-05T13:03:53.050Z,12.60
2022-11-05T13:06:24.417Z,12.80
2022-11-05T13:09:07.530Z,12.60
2022-11-05T13:12:02.339Z,12.70
2022-11-05T13:14:53.817Z,13.00
2022-11-05T13:18:51.953Z,12.70
2022-11-05T13:21:20.021Z,12.80
2022-11-05T13:24:34.365Z,13.00
2022-11-05T13:28:46.797Z,12.80
2022-11-05T13:31:17.079Z,12.60
2022-11-05T13:33:46.306Z,12.40
2022-11-05T13:36:38.757Z,12.50
2022-11-05T13:44:07.450Z,12.20
2022-11-05T13:53:39.492Z,12.00
2022-11-05T13:56:32.487Z,11.60
2022-11-05T13:59:29.031Z,11.70
2022-11-05T14:02:18.179Z,11.60
2022-11-05T14:04:47.366Z,11.50
2022-11-05T14:07:25.498Z,11.30
2022-11-05T14:10:43.376Z,11.20
2022-11-05T14:13:39.500Z,10.90
2022-11-05T14:16:16.463Z,10.90
2022-11-05T14:18:54.702Z,10.80
2022-11-05T14:21:32.669Z,10.80
2022-11-05T14:24:20.488Z,10.70
2022-11-05T14:28:42.175Z,10.60
2022-11-05T14:34:42.272Z,10.50
2022-11-05T14:37:29.252Z,10.40
2022-11-05T14:39:56.348Z,10.30
2022-11-05T14:42:33.428Z,10.30
2022-11-05T14:45:38.179Z,10.30
2022-11-05T14:48:24.184Z,10.30
2022-11-05T14:50:53.090Z,10.20
2022-11-05T14:53:37.889Z,10.20
2022-11-05T14:56:17.608Z,10.20
2022-11-05T14:58:45.421Z,10.20
2022-11-05T15:02:50.589Z,10.20
2022-11-05T15:05:38.417Z,10.10
2022-11-05T15:08:31.786Z,10.00
2022-11-05T15:13:41.840Z,9.90
2022-11-05T15:16:08.466Z,9.70
2022-11-05T15:18:45.952Z,9.40
2022-11-05T15:21:17.707Z,9.30
2022-11-05T15:23:45.178Z,9.20
2022-11-05T15:33:12.791Z,9.10
2022-11-05T15:35:42.005Z,8.70
2022-11-05T15:38:35.228Z,8.60
2022-11-05T15:41:20.665Z,8.50
2022-11-05T15:43:48.326Z,8.40
2022-11-05T15:46:19.737Z,8.30
2022-11-05T15:48:53.739Z,8.30
2022-11-05T15:51:22.792Z,8.20
2022-11-05T15:54:34.634Z,8.10
2022-11-05T15:57:01.785Z,8.00
2022-11-05T15:59:29.963Z,8.00
2022-11-05T16:02:02.525Z,7.90
2022-11-05T16:04:31.507Z,7.90
2022-11-05T16:06:59.724Z,7.90
2022-11-05T16:09:31.736Z,7.80
2022-11-05T16:12:24.282Z,7.80
2022-11-05T16:22:07.716Z,7.70
2022-11-05T16:24:33.939Z,7.50
2022-11-05T16:27:07.784Z,7.50
2022-11-05T16:29:36.197Z,7.40
2022-11-05T16:32:25.419Z,7.40
2022-11-05T16:34:57.513Z,7.30
2022-11-05T16:37:24.899Z,7.20
2022-11-05T16:39:51.636Z,7.00
2022-11-05T16:42:36.235Z,6.90
2022-11-05T16:45:06.601Z,6.90
2022-11-05T16:47:33.876Z,6.80
2022-11-05T16:50:04.969Z,6.80
2022-11-05T16:52:31.406Z,6.80
2022-11-05T16:54:58.555Z,6.70
2022-11-05T16:57:29.993Z,6.70
2022-11-05T16:59:59.198Z,6.60
2022-11-05T17:02:25.993Z,6.60
2022-11-05T17:04:57.668Z,6.50
2022-11-05T17:07:23.925Z,6.50
2022-11-05T17:09:51.567Z,6.50
2022-11-05T17:12:17.932Z,6.40
2022-11-05T17:14:48.302Z,6.50
2022-11-05T17:17:16.019Z,6.50
2022-11-05T17:19:42.780Z,6.40
2022-11-05T17:22:11.054Z,6.30
2022-11-05T17:24:46.371Z,6.30
2022-11-05T17:27:14.958Z,6.30
2022-11-05T17:29:43.152Z,6.20
2022-11-05T17:32:09.341Z,6.30
2022-11-05T17:34:37.822Z,6.30
2022-11-05T17:37:11.210Z,6.40
2022-11-05T17:39:39.367Z,6.40
2022-11-05T17:42:06.750Z,6.30
2022-11-05T17:44:33.620Z,6.40
2022-11-05T17:47:01.278Z,6.40
2022-11-05T17:49:29.326Z,6.40
2022-11-05T17:51:55.557Z,6.40
2022-11-05T17:57:08.175Z,6.40
2022-11-05T17:59:38.781Z,6.50
2022-11-05T18:02:05.215Z,6.50
2022-11-05T18:04:32.428Z,6.50
2022-11-05T18:06:59.764Z,6.50
2022-11-05T18:09:28.102Z,6.50
2022-11-05T18:11:54.364Z,6.60
2022-11-05T18:14:24.157Z,6.60
2022-11-05T18:16:55.405Z,6.60
2022-11-05T18:19:23.632Z,6.70
2022-11-05T18:21:50.002Z,6.80
2022-11-05T18:24:17.053Z,6.80
2022-11-05T18:26:44.336Z,6.80
2022-11-05T18:29:11.260Z,6.90
2022-11-05T18:31:37.983Z,6.80
2022-11-05T18:34:05.865Z,6.80
2022-11-05T18:36:34.191Z,6.80
2022-11-05T18:39:04.644Z,6.80
2022-11-05T18:41:32.161Z,6.80
2022-11-05T18:44:07.362Z,6.90
2022-11-05T18:46:57.629Z,6.80
2022-11-05T18:49:27.686Z,6.70
2022-11-05T18:51:57.179Z,6.70
2022-11-05T18:54:26.635Z,6.70
2022-11-05T18:56:53.280Z,6.70
2022-11-05T18:59:39.183Z,6.70
2022-11-05T19:02:07.825Z,6.60
2022-11-05T19:04:35.946Z,6.50
2022-11-05T19:07:05.205Z,6.40
2022-11-05T19:09:35.769Z,6.30
2022-11-05T19:12:02.397Z,6.20
2022-11-05T19:14:29.440Z,6.10
2022-11-05T19:16:58.508Z,6.00
2022-11-05T19:19:26.214Z,6.00
2022-11-05T19:21:52.644Z,6.10
2022-11-05T19:24:20.269Z,6.10
2022-11-05T19:26:46.950Z,6.00
2022-11-05T19:29:14.809Z,6.00
2022-11-05T19:31:42.301Z,6.00
2022-11-05T19:34:10.349Z,6.00
2022-11-05T19:36:36.600Z,6.00
2022-11-05T19:39:10.460Z,6.00
2022-11-05T19:41:37.487Z,5.90
2022-11-05T19:44:07.713Z,5.90
2022-11-05T19:46:34.788Z,5.90
2022-11-05T19:49:02.866Z,5.90
2022-11-05T19:51:32.793Z,5.80
2022-11-05T19:54:00.222Z,5.80
2022-11-05T19:56:29.546Z,5.70
2022-11-05T19:58:57.796Z,5.70
2022-11-05T20:01:26.181Z,5.60
2022-11-05T20:03:54.204Z,5.60
2022-11-05T20:06:24.519Z,5.60
2022-11-05T20:09:20.941Z,5.50
2022-11-05T20:11:49.102Z,5.40
2022-11-05T20:14:15.835Z,5.40
2022-11-05T20:16:42.777Z,5.30
2022-11-05T20:19:12.121Z,5.30
2022-11-05T20:21:39.582Z,5.30
2022-11-05T20:24:06.970Z,5.30
2022-11-05T20:26:35.694Z,5.20
2022-11-05T20:29:03.550Z,5.20
2022-11-05T20:31:30.488Z,5.10
2022-11-05T20:33:57.013Z,5.10
2022-11-05T20:36:26.241Z,5.00
2022-11-05T20:38:56.138Z,4.90
2022-11-05T20:41:23.820Z,4.80
2022-11-05T20:43:50.920Z,4.80
2022-11-05T20:46:18.379Z,4.80
2022-11-05T20:48:45.122Z,4.70
2022-11-05T20:51:14.629Z,4.70
2022-11-05T20:53:44.997Z,4.70
2022-11-05T20:56:23.614Z,4.60
2022-11-05T20:58:51.545Z,4.60
2022-11-05T21:01:18.710Z,4.60
2022-11-05T21:03:45.752Z,4.60
2022-11-05T21:06:13.334Z,4.60
2022-11-05T21:08:40.526Z,4.60
2022-11-05T21:11:08.298Z,4.60
2022-11-05T21:13:38.008Z,4.60
2022-11-05T21:16:07.288Z,4.60
2022-11-05T21:18:35.381Z,4.60
2022-11-05T21:21:06.642Z,4.50
2022-11-05T21:23:34.387Z,4.40
2022-11-05T21:26:08.175Z,4.20
2022-11-05T21:28:34.621Z,4.20
2022-11-05T21:31:03.256Z,4.10
2022-11-05T21:33:29.598Z,4.10
2022-11-05T21:35:56.670Z,4.10
2022-11-05T21:38:25.073Z,4.10
2022-11-05T21:40:52.236Z,4.10
2022-11-05T21:43:21.379Z,4.20
2022-11-05T21:45:49.284Z,4.20
2022-11-05T21:48:16.533Z,4.20
2022-11-05T21:51:06.066Z,4.20
2022-11-05T21:53:52.993Z,4.20
2022-11-05T21:56:40.640Z,4.20
2022-11-05T21:59:31.914Z,4.10
2022-11-05T22:02:01.222Z,4.20
2022-11-05T22:04:34.951Z,4.20
2022-11-05T22:07:03.088Z,4.20
2022-11-05T22:09:30.288Z,4.20
2022-11-05T22:11:59.010Z,4.30
2022-11-05T22:14:25.673Z,4.30
2022-11-05T22:16:51.906Z,4.30
2022-11-05T22:19:18.380Z,4.30
2022-11-05T22:21:47.411Z,4.30
2022-11-05T22:24:16.373Z,4.30
2022-11-05T22:26:43.278Z,4.30
2022-11-05T22:29:11.476Z,4.20
2022-11-05T22:31:37.740Z,4.20
2022-11-05T22:34:04.749Z,4.20
2022-11-05T22:36:32.818Z,4.20
2022-11-05T22:38:59.859Z,4.00
2022-11-05T22:41:26.143Z,4.00
2022-11-05T22:43:52.542Z,3.90
2022-11-05T22:46:21.529Z,3.80
2022-11-05T22:48:47.958Z,3.70
2022-11-05T22:51:20.028Z,3.50
2022-11-05T22:53:47.106Z,3.60
2022-11-05T22:56:15.736Z,3.30
2022-11-05T22:58:42.171Z,3.20
2022-11-05T23:01:11.056Z,3.10
2022-11-05T23:03:38.518Z,3.10
2022-11-05T23:11:34.718Z,3.10
2022-11-05T23:14:02.201Z,3.10
2022-11-05T23:16:47.825Z,3.00
2022-11-05T23:19:33.093Z,2.90
2022-11-05T23:22:18.698Z,2.90
2022-11-05T23:24:45.207Z,2.80
2022-11-05T23:27:11.492Z,2.70
2022-11-05T23:29:37.770Z,2.80
2022-11-05T23:32:23.624Z,2.70
2022-11-05T23:34:51.716Z,2.60
2022-11-05T23:37:37.735Z,2.50
2022-11-05T23:40:06.453Z,2.50
2022-11-05T23:42:51.566Z,2.50
2022-11-05T23:45:37.361Z,2.40
2022-11-05T23:48:17.653Z,2.50
2022-11-05T23:50:59.564Z,2.30
2022-11-05T23:53:27.654Z,2.30
2022-11-05T23:56:04.420Z,2.40
2022-11-05T23:58:31.850Z,2.30
